createdAt,value
2019-01-20T00:00:35.146Z,9.37
2019-01-20T00:03:06.539Z,9.80
2019-01-20T00:05:37.917Z,11.07
2019-01-20T00:08:09.759Z,10.30
2019-01-20T00:10:42.052Z,15.03
2019-01-20T00:13:13.446Z,11.27
2019-01-20T00:15:46.448Z,13.60
2019-01-20T00:18:18.740Z,10.43
2019-01-20T00:20:50.305Z,9.77
2019-01-20T00:23:21.591Z,10.33
2019-01-20T00:25:52.909Z,9.17
2019-01-20T00:28:24.211Z,9.60
2019-01-20T00:30:55.479Z,9.57
2019-01-20T00:33:27.178Z,8.37
2019-01-20T00:35:58.478Z,7.53
2019-01-20T00:38:29.787Z,10.70
2019-01-20T00:41:01.066Z,9.37
2019-01-20T00:43:32.384Z,6.33
2019-01-20T00:46:05.021Z,8.03
2019-01-20T00:48:36.420Z,6.20
2019-01-20T00:51:08.098Z,5.67
2019-01-20T00:53:39.402Z,6.87
2019-01-20T00:56:11.269Z,9.17
2019-01-20T00:58:43.602Z,8.80
2019-01-20T01:01:15.058Z,7.13
2019-01-20T01:03:46.377Z,11.43
2019-01-20T01:06:18.024Z,8.17
2019-01-20T01:08:49.329Z,10.37
2019-01-20T01:11:21.801Z,8.83
2019-01-20T01:13:53.142Z,9.50
2019-01-20T01:16:24.442Z,7.93
2019-01-20T01:18:55.685Z,5.30
2019-01-20T01:21:26.958Z,8.97
2019-01-20T01:23:58.186Z,8.10
2019-01-20T01:26:30.388Z,10.77
2019-01-20T01:29:01.657Z,8.87
2019-01-20T01:31:32.933Z,8.17
2019-01-20T01:34:04.413Z,10.40
2019-01-20T01:36:35.675Z,8.60
2019-01-20T01:39:09.410Z,11.60
2019-01-20T01:41:40.669Z,8.57
2019-01-20T01:44:11.942Z,8.53
2019-01-20T01:46:43.207Z,10.97
2019-01-20T01:49:14.516Z,8.63
2019-01-20T01:51:45.797Z,9.77
2019-01-20T01:54:17.117Z,12.23
2019-01-20T01:56:49.422Z,14.37
2019-01-20T01:59:21.561Z,12.33
2019-01-20T02:01:52.906Z,10.73
2019-01-20T02:04:24.277Z,9.97
2019-01-20T02:06:55.566Z,9.73
2019-01-20T02:09:27.005Z,10.33
2019-01-20T02:11:58.288Z,10.20
2019-01-20T02:14:29.609Z,13.40
2019-01-20T02:17:01.062Z,10.07
2019-01-20T02:19:32.420Z,9.43
2019-01-20T02:22:05.005Z,11.00
2019-01-20T02:24:36.305Z,9.23
2019-01-20T02:27:07.614Z,11.37
2019-01-20T02:29:39.741Z,10.97
2019-01-20T02:32:11.041Z,8.33
2019-01-20T02:34:42.354Z,9.67
2019-01-20T02:37:13.604Z,11.70
2019-01-20T02:39:44.933Z,11.87
2019-01-20T02:42:16.351Z,12.17
2019-01-20T02:44:47.637Z,7.47
2019-01-20T02:47:18.916Z,8.27
2019-01-20T02:49:50.620Z,6.97
2019-01-20T02:52:21.889Z,6.77
2019-01-20T02:54:53.321Z,8.40
2019-01-20T02:57:24.592Z,6.50
2019-01-20T02:59:55.851Z,8.40
2019-01-20T03:02:27.542Z,8.10
2019-01-20T03:04:58.842Z,8.87
2019-01-20T03:07:30.195Z,6.63
2019-01-20T03:10:01.503Z,9.43
2019-01-20T03:12:32.771Z,6.83
2019-01-20T03:15:04.612Z,6.03
2019-01-20T03:17:35.912Z,6.43
2019-01-20T03:20:09.771Z,7.93
2019-01-20T03:22:41.181Z,9.47
2019-01-20T03:25:13.910Z,7.13
2019-01-20T03:27:45.852Z,10.07
2019-01-20T03:30:22.426Z,6.10
2019-01-20T03:32:53.730Z,8.87
2019-01-20T03:35:26.379Z,7.10
2019-01-20T03:37:58.049Z,9.20
2019-01-20T03:40:29.381Z,7.73
2019-01-20T03:43:00.648Z,9.37
2019-01-20T03:45:31.898Z,10.47
2019-01-20T03:48:03.193Z,12.00
2019-01-20T03:50:34.524Z,6.30
2019-01-20T03:53:05.926Z,5.80
2019-01-20T03:55:37.216Z,6.90
2019-01-20T03:58:08.550Z,8.13
2019-01-20T04:00:39.957Z,8.70
2019-01-20T04:03:11.236Z,12.70
2019-01-20T04:05:42.515Z,12.30
2019-01-20T04:08:13.817Z,11.97
2019-01-20T04:10:45.286Z,13.10
2019-01-20T04:13:16.581Z,7.47
2019-01-20T04:15:47.934Z,10.70
2019-01-20T04:18:19.219Z,8.13
2019-01-20T04:20:50.504Z,7.90
2019-01-20T04:23:21.861Z,16.23
2019-01-20T04:25:53.180Z,12.90
2019-01-20T04:28:24.456Z,11.63
2019-01-20T04:30:55.698Z,10.17
2019-01-20T04:33:27.019Z,11.50
2019-01-20T04:35:58.295Z,10.87
2019-01-20T04:38:29.870Z,9.20
2019-01-20T04:41:01.147Z,11.07
2019-01-20T04:43:32.438Z,10.80
2019-01-20T04:46:03.740Z,9.57
2019-01-20T04:48:35.077Z,10.13
2019-01-20T04:51:06.373Z,9.63
2019-01-20T04:53:38.163Z,10.87
2019-01-20T04:56:09.545Z,11.87
2019-01-20T04:58:40.810Z,8.43
2019-01-20T05:01:12.068Z,11.30
2019-01-20T05:03:43.357Z,8.43
2019-01-20T05:06:14.596Z,9.70
2019-01-20T05:08:45.865Z,9.40
2019-01-20T05:11:17.289Z,9.63
2019-01-20T05:13:48.603Z,9.27
2019-01-20T05:16:19.877Z,11.33
2019-01-20T05:18:51.161Z,14.73
2019-01-20T05:21:23.326Z,12.07
2019-01-20T05:23:54.614Z,11.60
2019-01-20T05:26:25.900Z,11.50
2019-01-20T05:28:57.386Z,9.70
2019-01-20T05:31:31.623Z,8.53
2019-01-20T05:34:02.922Z,11.27
2019-01-20T05:36:34.188Z,11.73
2019-01-20T05:39:08.193Z,7.37
2019-01-20T05:41:39.475Z,7.87
2019-01-20T05:44:10.874Z,10.80
2019-01-20T05:46:42.132Z,7.07
2019-01-20T05:49:13.620Z,9.63
2019-01-20T05:51:44.873Z,10.37
2019-01-20T05:54:16.161Z,10.37
2019-01-20T05:56:47.414Z,7.40
2019-01-20T05:59:18.686Z,7.70
2019-01-20T06:01:49.913Z,12.13
2019-01-20T06:04:21.184Z,11.37
2019-01-20T06:06:52.437Z,11.57
2019-01-20T06:09:23.705Z,11.20
2019-01-20T06:11:55.150Z,9.43
2019-01-20T06:14:26.406Z,11.50
2019-01-20T06:16:57.711Z,9.90
2019-01-20T06:19:28.951Z,9.10
2019-01-20T06:22:00.219Z,10.23
2019-01-20T06:24:31.441Z,9.60
2019-01-20T06:27:02.689Z,9.23
2019-01-20T06:29:33.962Z,11.13
2019-01-20T06:32:05.285Z,11.40
2019-01-20T06:34:36.530Z,10.93
2019-01-20T06:37:07.794Z,11.47
2019-01-20T06:39:39.254Z,11.20
2019-01-20T06:42:10.563Z,11.10
2019-01-20T06:44:41.808Z,8.57
2019-01-20T06:47:13.057Z,11.60
2019-01-20T06:49:44.328Z,12.70
2019-01-20T06:52:15.642Z,13.90
2019-01-20T06:54:47.921Z,15.23
2019-01-20T06:57:19.384Z,12.17
2019-01-20T06:59:50.686Z,12.63
2019-01-20T07:02:22.049Z,11.77
2019-01-20T07:04:53.955Z,10.83
2019-01-20T07:07:25.440Z,9.63
2019-01-20T07:09:57.526Z,11.67
2019-01-20T07:12:28.794Z,9.73
2019-01-20T07:15:00.246Z,11.23
2019-01-20T07:17:31.580Z,13.77
2019-01-20T07:20:02.864Z,14.10
2019-01-20T07:22:34.113Z,16.17
2019-01-20T07:25:06.184Z,19.47
2019-01-20T07:27:37.529Z,14.10
2019-01-20T07:30:14.182Z,20.73
2019-01-20T07:32:45.438Z,27.03
2019-01-20T07:35:16.696Z,17.83
2019-01-20T07:37:48.825Z,14.87
2019-01-20T07:40:21.873Z,20.33
2019-01-20T07:42:53.270Z,20.93
2019-01-20T07:45:25.454Z,16.73
2019-01-20T07:47:57.278Z,17.03
2019-01-20T07:50:28.577Z,17.33
2019-01-20T07:53:00.196Z,14.80
2019-01-20T07:55:31.501Z,24.33
2019-01-20T07:58:02.807Z,18.93
2019-01-20T08:00:34.084Z,20.47
2019-01-20T08:03:05.365Z,20.63
2019-01-20T08:05:36.642Z,17.90
2019-01-20T08:08:07.918Z,20.37
2019-01-20T08:10:39.184Z,18.33
2019-01-20T08:13:10.680Z,19.43
2019-01-20T08:15:41.957Z,23.57
2019-01-20T08:18:13.440Z,86.57
2019-01-20T08:20:44.714Z,111.63
2019-01-20T08:23:16.404Z,35.80
2019-01-20T08:25:47.984Z,30.80
2019-01-20T08:28:19.305Z,29.77
2019-01-20T08:30:51.765Z,17.87
2019-01-20T08:33:23.454Z,17.80
2019-01-20T08:35:56.129Z,14.23
2019-01-20T08:38:27.428Z,16.67
2019-01-20T08:40:59.285Z,15.63
2019-01-20T08:43:32.216Z,15.10
2019-01-20T08:46:33.578Z,14.93
2019-01-20T08:49:05.397Z,14.13
2019-01-20T08:51:38.349Z,15.10
2019-01-20T08:54:09.762Z,16.43
2019-01-20T08:56:41.146Z,15.50
2019-01-20T08:59:12.441Z,15.63
2019-01-20T09:01:43.706Z,17.17
2019-01-20T09:04:15.067Z,14.37
2019-01-20T09:06:46.329Z,21.07
2019-01-20T09:09:17.637Z,14.67
2019-01-20T09:11:49.035Z,18.37
2019-01-20T09:14:21.097Z,20.83
2019-01-20T09:16:52.545Z,47.40
2019-01-20T09:19:23.861Z,17.10
2019-01-20T09:21:55.170Z,17.63
2019-01-20T09:24:27.364Z,16.73
2019-01-20T09:26:58.893Z,18.67
2019-01-20T09:29:30.204Z,28.43
2019-01-20T09:32:01.567Z,19.80
2019-01-20T09:34:33.837Z,20.13
2019-01-20T09:37:05.133Z,20.07
2019-01-20T09:39:36.716Z,18.90
2019-01-20T09:42:08.101Z,16.33
2019-01-20T09:44:39.400Z,18.03
2019-01-20T09:47:10.860Z,16.77
2019-01-20T09:49:42.145Z,22.70
2019-01-20T09:52:13.469Z,18.20
2019-01-20T09:54:44.752Z,15.10
2019-01-20T09:57:18.927Z,18.40
2019-01-20T09:59:50.457Z,20.43
2019-01-20T10:02:24.640Z,18.43
2019-01-20T10:04:58.836Z,19.80
2019-01-20T10:07:31.175Z,18.13
2019-01-20T10:10:02.477Z,18.63
2019-01-20T10:12:33.749Z,18.07
2019-01-20T10:15:06.249Z,17.67
2019-01-20T10:17:40.264Z,43.03
2019-01-20T10:20:17.493Z,26.27
2019-01-20T10:22:48.809Z,25.97
2019-01-20T10:25:21.209Z,19.60
2019-01-20T10:27:52.677Z,74.97
2019-01-20T10:30:30.714Z,29.70
2019-01-20T10:33:03.688Z,19.17
2019-01-20T10:35:39.362Z,15.83
2019-01-20T10:38:11.892Z,17.23
2019-01-20T10:40:43.477Z,16.43
2019-01-20T10:43:14.801Z,16.77
2019-01-20T10:45:46.164Z,17.30
2019-01-20T10:48:17.653Z,13.57
2019-01-20T10:50:48.918Z,17.47
2019-01-20T10:53:20.210Z,19.43
2019-01-20T10:55:51.516Z,15.27
2019-01-20T10:58:23.201Z,16.70
2019-01-20T11:00:54.481Z,18.07
2019-01-20T11:03:26.676Z,15.67
2019-01-20T11:05:58.016Z,16.27
2019-01-20T11:08:29.290Z,17.00
2019-01-20T11:11:03.380Z,15.33
2019-01-20T11:13:34.640Z,14.53
2019-01-20T11:16:07.258Z,20.03
2019-01-20T11:18:39.874Z,16.83
2019-01-20T11:21:11.186Z,20.40
2019-01-20T11:23:42.481Z,19.40
2019-01-20T11:26:13.748Z,20.83
2019-01-20T11:28:45.004Z,16.13
2019-01-20T11:31:16.317Z,18.27
2019-01-20T11:33:47.641Z,15.87
2019-01-20T11:36:19.145Z,16.37
2019-01-20T11:38:50.426Z,17.03
2019-01-20T11:41:22.318Z,17.43
2019-01-20T11:43:53.586Z,18.57
2019-01-20T11:46:24.833Z,19.43
2019-01-20T11:48:56.125Z,15.53
2019-01-20T11:51:27.779Z,16.07
2019-01-20T11:53:59.057Z,15.47
2019-01-20T11:56:30.352Z,16.23
2019-01-20T11:59:01.663Z,17.27
2019-01-20T12:01:33.093Z,16.90
2019-01-20T12:04:04.689Z,13.20
2019-01-20T12:06:38.294Z,15.97
2019-01-20T12:09:10.083Z,17.80
2019-01-20T12:11:41.404Z,18.63
2019-01-20T12:14:12.638Z,14.17
2019-01-20T12:16:43.917Z,11.23
2019-01-20T12:19:15.173Z,16.43
2019-01-20T12:21:46.462Z,14.53
2019-01-20T12:24:19.439Z,13.90
2019-01-20T12:26:50.767Z,13.23
2019-01-20T12:29:22.070Z,17.37
2019-01-20T12:31:53.566Z,13.53
2019-01-20T12:34:24.900Z,12.23
2019-01-20T12:36:56.774Z,13.70
2019-01-20T12:39:29.077Z,11.80
2019-01-20T12:42:00.345Z,14.77
2019-01-20T12:44:31.759Z,13.93
2019-01-20T12:47:03.165Z,19.13
2019-01-20T12:49:34.700Z,12.80
2019-01-20T12:52:06.025Z,12.00
2019-01-20T12:54:37.317Z,11.40
2019-01-20T12:57:08.632Z,11.13
2019-01-20T12:59:39.812Z,16.73
2019-01-20T13:02:11.061Z,13.30
2019-01-20T13:04:42.289Z,12.47
2019-01-20T13:07:13.635Z,13.03
2019-01-20T13:09:45.045Z,13.10
2019-01-20T13:12:16.298Z,12.87
2019-01-20T13:14:49.553Z,11.37
2019-01-20T13:17:21.012Z,13.50
2019-01-20T13:19:52.260Z,14.37
2019-01-20T13:22:26.263Z,13.33
2019-01-20T13:24:59.273Z,13.80
2019-01-20T13:27:30.546Z,12.37
2019-01-20T13:30:01.809Z,11.63
2019-01-20T13:32:33.320Z,14.77
2019-01-20T13:35:04.982Z,13.97
2019-01-20T13:37:36.863Z,12.63
2019-01-20T13:40:12.309Z,11.43
2019-01-20T13:42:43.602Z,15.67
2019-01-20T13:45:14.966Z,13.67
2019-01-20T13:47:48.813Z,12.23
2019-01-20T13:50:22.938Z,19.70
2019-01-20T13:52:55.525Z,22.83
2019-01-20T13:55:26.789Z,17.23
2019-01-20T13:57:59.152Z,19.23
2019-01-20T14:00:30.732Z,14.30
2019-01-20T14:03:02.868Z,27.73
2019-01-20T14:05:34.217Z,17.83
2019-01-20T14:08:07.015Z,12.47
2019-01-20T14:10:38.269Z,16.33
2019-01-20T14:13:09.827Z,14.10
2019-01-20T14:15:41.080Z,17.67
2019-01-20T14:18:12.373Z,15.60
2019-01-20T14:20:43.666Z,16.10
2019-01-20T14:23:15.779Z,14.73
2019-01-20T14:25:47.254Z,12.47
2019-01-20T14:28:19.135Z,25.47
2019-01-20T14:30:50.396Z,27.40
2019-01-20T14:33:21.826Z,13.60
2019-01-20T14:35:53.198Z,12.83
2019-01-20T14:38:24.493Z,32.50
2019-01-20T14:40:55.717Z,18.50
2019-01-20T14:43:28.063Z,13.53
2019-01-20T14:45:59.296Z,18.00
2019-01-20T14:48:32.185Z,13.17
2019-01-20T14:51:03.659Z,12.93
2019-01-20T14:53:34.966Z,11.53
2019-01-20T14:56:06.501Z,11.97
2019-01-20T14:58:37.790Z,13.37
2019-01-20T15:01:09.067Z,10.93
2019-01-20T15:03:40.361Z,10.80
2019-01-20T15:06:11.724Z,11.33
2019-01-20T15:08:43.069Z,12.10
2019-01-20T15:11:15.499Z,11.23
2019-01-20T15:13:46.714Z,10.40
2019-01-20T15:16:18.064Z,10.60
2019-01-20T15:18:49.625Z,10.53
2019-01-20T15:21:20.907Z,12.53
2019-01-20T15:23:52.353Z,10.80
2019-01-20T15:26:23.715Z,14.67
2019-01-20T15:28:56.499Z,15.60
2019-01-20T15:31:28.418Z,12.53
2019-01-20T15:33:59.865Z,9.10
2019-01-20T15:36:32.073Z,8.63
2019-01-20T15:39:03.806Z,9.63
2019-01-20T15:41:36.180Z,10.60
2019-01-20T15:44:07.620Z,10.73
2019-01-20T15:46:39.327Z,10.43
2019-01-20T15:49:10.787Z,12.33
2019-01-20T15:51:42.464Z,12.90
2019-01-20T15:54:13.782Z,12.83
2019-01-20T15:56:45.490Z,11.00
2019-01-20T15:59:17.771Z,13.60
2019-01-20T16:01:49.473Z,16.17
2019-01-20T16:04:24.081Z,17.27
2019-01-20T16:06:54.668Z,15.03
2019-01-20T16:09:27.120Z,20.40
2019-01-20T16:11:58.452Z,22.70
2019-01-20T16:14:29.750Z,23.93
2019-01-20T16:17:01.029Z,38.47
2019-01-20T16:19:33.530Z,33.67
2019-01-20T16:22:04.961Z,46.70
2019-01-20T16:24:36.600Z,31.13
2019-01-20T16:27:07.877Z,28.40
2019-01-20T16:29:39.167Z,32.27
2019-01-20T16:32:10.922Z,31.70
2019-01-20T16:34:42.209Z,58.97
2019-01-20T16:37:13.496Z,52.40
2019-01-20T16:39:45.908Z,31.90
2019-01-20T16:42:17.462Z,23.43
2019-01-20T16:44:48.990Z,22.30
2019-01-20T16:47:20.675Z,30.40
2019-01-20T16:49:54.105Z,33.67
2019-01-20T16:52:25.767Z,22.23
2019-01-20T16:54:57.045Z,24.93
2019-01-20T16:57:28.492Z,28.83
2019-01-20T17:00:00.261Z,35.43
2019-01-20T17:02:32.164Z,33.70
2019-01-20T17:05:03.514Z,29.03
2019-01-20T17:07:36.351Z,22.87
2019-01-20T17:10:13.256Z,19.73
2019-01-20T17:12:45.141Z,14.93
2019-01-20T17:15:19.471Z,20.20
2019-01-20T17:17:50.991Z,18.00
2019-01-20T17:20:22.909Z,18.70
2019-01-20T17:22:56.050Z,21.67
2019-01-20T17:25:28.025Z,24.27
2019-01-20T17:27:59.528Z,42.83
2019-01-20T17:30:32.952Z,36.50
2019-01-20T17:33:04.593Z,25.53
2019-01-20T17:35:36.087Z,22.30
2019-01-20T17:38:07.634Z,18.33
2019-01-20T17:40:40.009Z,15.87
2019-01-20T17:43:11.383Z,16.47
2019-01-20T17:45:48.686Z,36.60
2019-01-20T17:48:18.214Z,29.43
2019-01-20T17:50:50.126Z,20.93
2019-01-20T17:53:22.412Z,26.50
2019-01-20T17:55:53.741Z,33.20
2019-01-20T17:58:25.654Z,38.57
2019-01-20T18:01:00.481Z,29.37
2019-01-20T18:03:31.945Z,26.50
2019-01-20T18:06:03.314Z,19.90
2019-01-20T18:08:34.654Z,19.10
2019-01-20T18:11:06.024Z,18.30
2019-01-20T18:13:37.501Z,18.63
2019-01-20T18:16:08.794Z,31.23
2019-01-20T18:18:40.454Z,29.07
2019-01-20T18:21:12.846Z,36.33
2019-01-20T18:23:47.003Z,40.53
2019-01-20T18:26:18.732Z,37.57
2019-01-20T18:28:50.421Z,23.50
2019-01-20T18:31:21.997Z,23.97
2019-01-20T18:33:53.647Z,22.00
2019-01-20T18:36:25.112Z,24.77
2019-01-20T18:38:56.393Z,24.23
2019-01-20T18:41:27.702Z,20.60
2019-01-20T18:43:59.005Z,16.33
2019-01-20T18:46:30.296Z,21.70
2019-01-20T18:49:01.702Z,21.63
2019-01-20T18:51:33.164Z,21.43
2019-01-20T18:54:04.808Z,21.77
2019-01-20T18:56:36.081Z,21.00
2019-01-20T18:59:07.369Z,16.97
2019-01-20T19:01:39.672Z,17.57
2019-01-20T19:04:10.940Z,18.33
2019-01-20T19:06:42.239Z,19.20
2019-01-20T19:09:13.497Z,17.20
2019-01-20T19:11:44.778Z,20.10
2019-01-20T19:14:16.065Z,29.27
2019-01-20T19:16:48.541Z,50.63
2019-01-20T19:19:19.803Z,55.20
2019-01-20T19:21:51.270Z,41.60
2019-01-20T19:24:22.714Z,23.37
2019-01-20T19:26:54.022Z,21.87
2019-01-20T19:29:25.286Z,23.97
2019-01-20T19:31:56.533Z,32.03
2019-01-20T19:34:27.810Z,25.87
2019-01-20T19:36:59.100Z,26.27
2019-01-20T19:39:31.468Z,27.70
2019-01-20T19:42:03.124Z,25.30
2019-01-20T19:44:44.469Z,28.73
2019-01-20T19:47:17.638Z,27.07
2019-01-20T19:49:48.941Z,24.67
2019-01-20T19:52:20.661Z,25.00
2019-01-20T19:54:51.936Z,22.00
2019-01-20T19:57:23.312Z,28.40
2019-01-20T19:59:55.414Z,23.77
2019-01-20T20:02:26.716Z,30.37
2019-01-20T20:04:57.945Z,31.60
2019-01-20T20:07:31.290Z,30.07
2019-01-20T20:10:03.169Z,27.10
2019-01-20T20:12:35.812Z,29.30
2019-01-20T20:15:09.492Z,27.97
2019-01-20T20:17:41.237Z,29.80
2019-01-20T20:20:13.539Z,26.17
2019-01-20T20:22:45.029Z,28.43
2019-01-20T20:25:18.442Z,26.73
2019-01-20T20:27:49.878Z,27.93
2019-01-20T20:30:29.534Z,27.67
2019-01-20T20:33:02.330Z,28.67
2019-01-20T20:35:34.837Z,30.40
2019-01-20T20:38:06.262Z,24.00
2019-01-20T20:40:37.670Z,24.17
2019-01-20T20:43:08.958Z,23.73
2019-01-20T20:45:41.671Z,24.83
2019-01-20T20:48:14.417Z,28.53
2019-01-20T20:50:45.710Z,23.57
2019-01-20T20:53:17.318Z,25.33
2019-01-20T20:55:48.887Z,29.57
2019-01-20T20:58:20.313Z,22.47
2019-01-20T21:00:53.861Z,24.97
2019-01-20T21:03:34.195Z,34.70
2019-01-20T21:06:06.056Z,35.07
2019-01-20T21:08:37.538Z,25.37
2019-01-20T21:11:10.393Z,27.53
2019-01-20T21:13:41.803Z,26.50
2019-01-20T21:16:14.463Z,27.80
2019-01-20T21:18:46.756Z,29.63
2019-01-20T21:21:19.137Z,27.93
2019-01-20T21:23:50.472Z,34.23
2019-01-20T21:26:22.883Z,24.13
2019-01-20T21:28:55.665Z,21.47
2019-01-20T21:31:28.149Z,20.70
2019-01-20T21:33:59.859Z,22.57
2019-01-20T21:36:31.142Z,19.80
2019-01-20T21:39:04.436Z,23.00
2019-01-20T21:41:35.712Z,21.73
2019-01-20T21:44:08.258Z,20.70
2019-01-20T21:46:45.320Z,23.17
2019-01-20T21:49:12.525Z,22.97
2019-01-20T21:51:43.866Z,22.60
2019-01-20T21:54:18.290Z,20.67
2019-01-20T21:56:49.631Z,21.60
2019-01-20T21:59:21.845Z,26.00
2019-01-20T22:01:53.909Z,27.30
2019-01-20T22:04:25.121Z,26.17
2019-01-20T22:06:56.509Z,37.73
2019-01-20T22:09:30.758Z,57.60
2019-01-20T22:12:02.095Z,73.27
2019-01-20T22:14:33.932Z,79.60
2019-01-20T22:17:06.306Z,68.10
2019-01-20T22:19:37.588Z,23.97
2019-01-20T22:24:59.249Z,23.63
2019-01-20T22:27:30.676Z,30.40
2019-01-20T22:30:02.277Z,26.50
2019-01-20T22:32:33.593Z,23.80
2019-01-20T22:35:05.905Z,26.70
2019-01-20T22:37:37.174Z,24.87
2019-01-20T22:40:09.537Z,25.73
2019-01-20T22:42:40.827Z,25.03
2019-01-20T22:45:14.423Z,23.60
2019-01-20T22:47:46.121Z,23.87
2019-01-20T22:50:17.411Z,25.23
2019-01-20T22:52:48.896Z,29.20
2019-01-20T22:55:20.176Z,27.67
2019-01-20T22:57:51.718Z,27.57
2019-01-20T23:00:39.721Z,32.50
2019-01-20T23:03:11.269Z,25.03
2019-01-20T23:05:42.549Z,22.60
2019-01-20T23:08:13.837Z,24.30
2019-01-20T23:10:45.112Z,22.27
2019-01-20T23:13:16.418Z,22.03
2019-01-20T23:15:47.852Z,21.43
2019-01-20T23:18:19.232Z,17.67
2019-01-20T23:20:50.548Z,20.03
2019-01-20T23:23:21.834Z,19.87
2019-01-20T23:25:53.573Z,17.47
2019-01-20T23:28:24.845Z,22.80
2019-01-20T23:30:56.177Z,17.60
2019-01-20T23:33:27.489Z,21.90
2019-01-20T23:35:58.849Z,19.50
2019-01-20T23:38:30.639Z,22.60
2019-01-20T23:41:02.016Z,22.60
2019-01-20T23:43:33.350Z,20.63
2019-01-20T23:46:04.740Z,22.50
2019-01-20T23:48:36.065Z,19.37
2019-01-20T23:51:07.396Z,23.07
2019-01-20T23:53:38.772Z,21.77
2019-01-20T23:56:10.151Z,20.10
2019-01-20T23:58:41.488Z,23.23
